Time;durP1;ratioP1;P1;durP2;ratioP2;P2;SDS_P1;SDS_P2;PMS_P1;PMS_P2;Temp;Humidity;BMP_temperature;BMP_pressure;BME280_temperature;BME280_humidity;BME280_pressure;Samples;Min_cycle;Max_cycle;Signal;HPM_P1;HPM_P2
2022/10/30 00:01:39;;;;;;;7.10;5.77;;;;;;;11.59;73.81;95631.88;5094943;28;20449;-76
2022/10/30 00:04:06;;;;;;;6.73;5.57;;;;;;;11.61;72.93;95632.59;5094689;28;20446;-76
2022/10/30 00:06:33;;;;;;;8.70;5.90;;;;;;;11.64;73.54;95632.34;5094590;28;20450;-76
2022/10/30 00:09:01;;;;;;;10.93;5.80;;;;;;;11.68;73.43;95628.53;5094743;28;20496;-77
2022/10/30 00:11:29;;;;;;;9.67;6.00;;;;;;;11.69;73.13;95627.56;5093878;28;20813;-77
2022/10/30 00:13:55;;;;;;;7.20;5.60;;;;;;;11.70;72.95;95631.88;5094734;28;20515;-77
2022/10/30 00:16:22;;;;;;;8.10;5.83;;;;;;;11.71;73.41;95619.56;5094431;28;20447;-77
2022/10/30 00:18:49;;;;;;;7.10;5.43;;;;;;;11.71;72.63;95625.66;5094464;28;20450;-76
2022/10/30 00:21:17;;;;;;;5.73;5.13;;;;;;;11.70;74.07;95623.97;5094392;28;20442;-76
2022/10/30 00:23:47;;;;;;;9.07;5.50;;;;;;;11.69;73.69;95621.47;5094595;28;20512;-76
2022/10/30 00:26:19;;;;;;;5.30;4.80;;;;;;;11.62;73.31;95621.13;5094533;28;20445;-76
2022/10/30 00:28:49;;;;;;;8.33;6.17;;;;;;;11.60;74.46;95622.19;5094212;28;20444;-76
2022/10/30 00:31:16;;;;;;;6.60;5.80;;;;;;;11.61;73.81;95621.25;5093817;28;20447;-76
2022/10/30 00:33:43;;;;;;;12.77;6.57;;;;;;;11.44;74.53;95614.63;5093956;28;20452;-77
2022/10/30 00:36:10;;;;;;;9.70;6.37;;;;;;;11.47;74.38;95622.28;5094622;28;20449;-77
2022/10/30 00:38:37;;;;;;;7.80;6.00;;;;;;;11.50;75.82;95619.41;5094035;28;20440;-76
2022/10/30 00:41:03;;;;;;;7.77;7.03;;;;;;;11.54;75.09;95617.38;5042017;28;20445;-76
2022/10/30 00:43:35;;;;;;;9.23;7.10;;;;;;;11.59;74.98;95629.25;5094086;28;20445;-76
2022/10/30 00:46:08;;;;;;;8.43;6.20;;;;;;;11.67;74.81;95626.00;5093919;28;20442;-76
2022/10/30 00:48:35;;;;;;;9.30;6.60;;;;;;;11.69;73.06;95609.16;5094090;28;20523;-76
2022/10/30 00:51:05;;;;;;;9.40;6.87;;;;;;;11.72;73.68;95619.44;5093983;28;20480;-76
2022/10/30 00:53:32;;;;;;;12.13;8.47;;;;;;;11.23;72.86;95619.72;5093580;28;20474;-76
2022/10/30 00:56:05;;;;;;;11.80;9.13;;;;;;;11.30;72.39;95625.38;5093850;28;20449;-76
2022/10/30 00:58:38;;;;;;;12.43;8.00;;;;;;;11.31;72.86;95617.38;5093618;28;20435;-76
2022/10/30 01:01:10;;;;;;;11.30;8.33;;;;;;;11.31;73.05;95616.53;5057931;28;20444;-77
2022/10/30 01:03:39;;;;;;;9.97;7.40;;;;;;;11.36;73.04;95614.38;5093795;28;20447;-76
2022/10/30 01:06:10;;;;;;;11.50;9.47;;;;;;;11.34;72.92;95605.78;5093616;28;20448;-76
2022/10/30 01:08:37;;;;;;;11.03;8.10;;;;;;;11.39;72.72;95614.16;5093513;28;20438;-76
2022/10/30 01:11:05;;;;;;;14.60;8.70;;;;;;;11.35;72.38;95607.47;5093468;28;20434;-76
2022/10/30 01:13:36;;;;;;;11.13;8.10;;;;;;;11.34;73.09;95613.69;5093443;28;20535;-76
2022/10/30 01:16:15;;;;;;;15.60;8.33;;;;;;;11.36;72.20;95609.97;5093759;28;20861;-76
2022/10/30 01:18:51;;;;;;;10.70;8.30;;;;;;;11.39;73.27;95611.53;5093343;28;20472;-76
2022/10/30 01:21:38;;;;;;;9.70;8.30;;;;;;;11.37;72.99;95593.25;5093373;28;20441;-76
2022/10/30 01:24:24;;;;;;;14.83;7.23;;;;;;;11.26;73.93;95595.00;5092636;28;20445;-76
2022/10/30 01:26:57;;;;;;;9.13;7.60;;;;;;;11.24;73.61;95581.16;5093549;28;20441;-76
2022/10/30 01:29:40;;;;;;;10.47;8.37;;;;;;;11.24;73.71;95574.09;5057454;28;20489;-76
2022/10/30 01:32:22;;;;;;;9.67;7.90;;;;;;;11.23;74.17;95577.69;5092842;28;20488;-76
2022/10/30 01:34:56;;;;;;;8.93;8.10;;;;;;;11.21;74.27;95581.38;5093088;28;20457;-76
2022/10/30 01:37:31;;;;;;;10.60;6.77;;;;;;;11.15;74.42;95577.44;5092985;28;20522;-76
2022/10/30 01:40:04;;;;;;;7.20;6.23;;;;;;;11.17;74.99;95579.00;5092959;28;20449;-77
2022/10/30 01:42:53;;;;;;;9.87;6.50;;;;;;;11.18;74.37;95567.53;5057617;28;20438;-76
2022/10/30 01:45:31;;;;;;;8.13;5.37;;;;;;;11.16;74.66;95572.06;5010620;28;20515;-76
2022/10/30 01:48:21;;;;;;;6.43;5.83;;;;;;;11.13;75.33;95576.72;5010643;28;20442;-76
2022/10/30 01:50:56;;;;;;;7.97;6.20;;;;;;;11.07;76.08;95578.03;5010118;28;20442;-76
2022/10/30 01:53:43;;;;;;;7.23;5.80;;;;;;;11.02;75.19;95576.72;5089325;27;21094;-75
2022/10/30 01:56:20;;;;;;;11.13;6.77;;;;;;;11.01;76.05;95577.66;5089319;28;20451;-75
2022/10/30 01:58:52;;;;;;;7.07;6.20;;;;;;;10.96;75.88;95571.91;5089051;28;20856;-74
2022/10/30 02:01:20;;;;;;;7.03;6.40;;;;;;;10.93;75.42;95575.59;5089288;28;20454;-75
2022/10/30 02:03:47;;;;;;;7.57;5.30;;;;;;;10.81;75.32;95566.03;5089143;28;20441;-75
2022/10/30 02:06:14;;;;;;;6.73;5.90;;;;;;;10.80;76.21;95567.81;5087062;28;20437;-74
2022/10/30 02:08:45;;;;;;;8.63;6.23;;;;;;;10.82;76.26;95568.53;5089107;28;20947;-77
2022/10/30 02:11:12;;;;;;;9.70;6.00;;;;;;;10.84;75.81;95555.28;5088853;28;20993;-74
2022/10/30 02:13:39;;;;;;;6.47;5.70;;;;;;;10.82;76.00;95567.69;5089047;28;20448;-75
2022/10/30 02:16:07;;;;;;;9.27;6.80;;;;;;;10.78;76.17;95553.13;5089111;28;20936;-74
2022/10/30 02:18:34;;;;;;;9.37;6.90;;;;;;;10.85;75.90;95565.69;5089013;28;20867;-77
2022/10/30 02:21:02;;;;;;;9.90;6.40;;;;;;;10.92;76.08;95563.41;5088979;28;20438;-74
2022/10/30 02:23:29;;;;;;;7.20;6.50;;;;;;;10.88;75.53;95564.63;5088838;28;21000;-74
2022/10/30 02:25:55;;;;;;;15.13;6.30;;;;;;;10.86;75.44;95566.50;5088797;28;20434;-77
2022/10/30 02:28:22;;;;;;;9.90;7.10;;;;;;;10.89;75.15;95568.91;5089266;28;20442;-75
2022/10/30 02:30:49;;;;;;;12.70;8.00;;;;;;;10.88;75.70;95571.66;5088988;28;20735;-76
2022/10/30 02:33:15;;;;;;;13.13;7.87;;;;;;;10.90;75.92;95570.59;5089043;28;20873;-75
2022/10/30 02:35:42;;;;;;;9.90;7.20;;;;;;;10.90;75.98;95570.59;5088732;28;20450;-74
2022/10/30 02:38:10;;;;;;;9.30;7.10;;;;;;;10.87;75.43;95576.06;5088460;28;20932;-77
2022/10/30 02:40:37;;;;;;;8.83;7.00;;;;;;;10.86;75.11;95574.41;5053025;28;20437;-76
2022/10/30 02:43:04;;;;;;;8.80;6.50;;;;;;;10.79;75.05;95570.56;5088698;28;20453;-76
2022/10/30 02:45:31;;;;;;;8.63;7.37;;;;;;;10.79;75.39;95570.56;5088618;28;20445;-74
2022/10/30 02:47:59;;;;;;;11.30;7.90;;;;;;;10.77;75.48;95570.69;5088470;28;20442;-75
2022/10/30 02:50:26;;;;;;;9.90;7.33;;;;;;;10.71;75.17;95571.13;5069317;28;20936;-77
2022/10/30 02:52:53;;;;;;;10.80;7.50;;;;;;;10.65;75.40;95581.22;5088089;28;20500;-75
2022/10/30 02:55:21;;;;;;;13.57;7.63;;;;;;;10.53;76.67;95581.19;5088029;28;20502;-75
2022/10/30 02:57:48;;;;;;;7.40;6.53;;;;;;;10.50;75.84;95588.47;5088332;28;20444;-75
2022/10/30 03:00:15;;;;;;;9.73;6.73;;;;;;;10.42;76.73;95575.91;5088055;28;20452;-74
2022/10/30 03:02:42;;;;;;;13.50;7.67;;;;;;;10.30;77.03;95576.78;5085072;28;20432;-75
2022/10/30 03:05:09;;;;;;;10.73;6.57;;;;;;;10.27;77.79;95577.00;5074305;28;20498;-75
2022/10/30 03:07:36;;;;;;;10.77;7.30;;;;;;;10.27;77.00;95581.44;5074672;28;20498;-75
2022/10/30 03:10:03;;;;;;;10.17;6.83;;;;;;;10.26;77.83;95579.75;5074708;28;20456;-75
2022/10/30 03:12:31;;;;;;;7.80;7.10;;;;;;;10.24;78.41;95587.72;5055575;28;20892;-75
2022/10/30 03:14:58;;;;;;;11.77;7.20;;;;;;;10.25;78.10;95586.78;5074251;28;20455;-74
2022/10/30 03:17:24;;;;;;;8.03;7.23;;;;;;;10.20;78.22;95588.88;5055685;28;20449;-74
2022/10/30 03:19:51;;;;;;;16.03;8.40;;;;;;;10.23;78.30;95591.31;5074261;28;20444;-74
2022/10/30 03:22:18;;;;;;;14.53;7.50;;;;;;;10.22;78.27;95600.13;5074231;28;20498;-74
2022/10/30 03:24:45;;;;;;;9.50;7.37;;;;;;;10.24;78.35;95599.06;5074471;28;20490;-74
2022/10/30 03:27:11;;;;;;;12.97;7.20;;;;;;;10.26;78.37;95598.13;5074427;28;20484;-75
2022/10/30 03:29:39;;;;;;;8.40;7.53;;;;;;;10.27;77.91;95599.78;5074173;28;20445;-75
2022/10/30 03:32:10;;;;;;;7.20;6.60;;;;;;;10.26;78.35;95593.69;5073901;28;21060;-74
2022/10/30 03:34:37;;;;;;;10.37;7.80;;;;;;;10.23;78.99;95586.06;5074128;28;20474;-75
2022/10/30 03:37:05;;;;;;;13.80;6.60;;;;;;;10.22;78.85;95589.63;5073971;28;20444;-74
2022/10/30 03:39:31;;;;;;;10.87;7.60;;;;;;;10.22;78.67;95576.53;5074372;28;20421;-75
2022/10/30 03:41:58;;;;;;;11.40;7.07;;;;;;;10.20;78.97;95578.38;5073968;28;20456;-74
2022/10/30 03:44:25;;;;;;;8.03;7.33;;;;;;;10.17;78.92;95576.81;5074200;28;20514;-74
2022/10/30 03:46:53;;;;;;;14.57;8.30;;;;;;;10.13;78.02;95577.16;5073655;28;20456;-74
2022/10/30 03:49:20;;;;;;;13.30;9.20;;;;;;;10.04;78.40;95580.41;5073843;28;20453;-74
2022/10/30 03:51:46;;;;;;;15.57;8.37;;;;;;;10.04;79.01;95578.63;5073489;28;20488;-74
2022/10/30 03:54:13;;;;;;;13.47;8.60;;;;;;;10.01;79.71;95584.09;5074028;28;20514;-74
2022/10/30 03:56:40;;;;;;;10.67;7.97;;;;;;;9.97;79.35;95579.19;5037963;28;20927;-77
2022/10/30 03:59:07;;;;;;;13.10;9.60;;;;;;;9.96;79.99;95580.13;5073888;28;20441;-77
2022/10/30 04:01:33;;;;;;;17.37;10.20;;;;;;;10.02;80.65;95582.31;5073447;28;20839;-75
2022/10/30 04:04:01;;;;;;;11.87;9.47;;;;;;;10.06;81.09;95578.53;5037869;28;20944;-77
2022/10/30 04:06:28;;;;;;;11.20;9.60;;;;;;;10.08;81.61;95576.63;5073625;28;20441;-75
2022/10/30 04:08:55;;;;;;;13.20;9.83;;;;;;;10.10;80.44;95575.56;5073363;28;20444;-75
2022/10/30 04:11:22;;;;;;;15.80;9.00;;;;;;;10.12;80.33;95568.44;5037892;28;20444;-75
2022/10/30 04:13:49;;;;;;;9.50;8.60;;;;;;;10.11;80.14;95571.16;5073143;28;20903;-74
2022/10/30 04:16:15;;;;;;;8.03;7.20;;;;;;;10.07;79.27;95567.91;5053426;28;20442;-75
2022/10/30 04:18:42;;;;;;;14.40;9.50;;;;;;;10.09;79.06;95562.56;5073017;28;20456;-75
2022/10/30 04:21:10;;;;;;;10.80;9.07;;;;;;;10.06;79.00;95563.63;5073578;28;20426;-74
2022/10/30 04:23:37;;;;;;;14.87;9.30;;;;;;;10.08;78.66;95566.13;5073043;28;20931;-75
2022/10/30 04:26:04;;;;;;;12.10;9.40;;;;;;;10.07;79.27;95565.31;5073645;28;20823;-74
2022/10/30 04:28:31;;;;;;;13.60;9.80;;;;;;;10.01;79.56;95568.38;5072986;28;20444;-74
2022/10/30 04:30:57;;;;;;;11.50;9.30;;;;;;;9.92;79.67;95575.13;5073238;28;20451;-74
2022/10/30 04:33:24;;;;;;;13.50;9.13;;;;;;;10.00;78.99;95565.84;5072767;28;20473;-74
2022/10/30 04:35:51;;;;;;;13.33;9.37;;;;;;;10.02;79.45;95571.81;5072969;28;20437;-75
2022/10/30 04:38:19;;;;;;;8.93;7.70;;;;;;;9.98;79.14;95575.63;5072801;28;20819;-75
2022/10/30 04:40:46;;;;;;;16.87;8.70;;;;;;;9.97;78.97;95574.78;5037230;28;20433;-74
2022/10/30 04:43:13;;;;;;;9.93;8.13;;;;;;;10.00;79.40;95579.81;5072810;28;20498;-74
2022/10/30 04:45:42;;;;;;;16.53;10.23;;;;;;;9.98;78.79;95584.31;5072442;28;20813;-74
2022/10/30 04:48:12;;;;;;;14.13;11.53;;;;;;;9.75;78.97;95585.09;5072983;28;20463;-74
2022/10/30 04:50:38;;;;;;;23.13;12.17;;;;;;;9.74;78.50;95588.69;5072510;28;20449;-74
2022/10/30 04:53:08;;;;;;;18.07;11.80;;;;;;;9.68;78.77;95579.47;5072745;28;20587;-74
2022/10/30 04:55:36;;;;;;;20.20;12.70;;;;;;;9.71;78.86;95588.91;5072530;28;20441;-74
2022/10/30 04:58:03;;;;;;;30.17;17.97;;;;;;;9.76;79.10;95592.03;5072408;28;20441;-74
2022/10/30 05:00:31;;;;;;;22.10;13.70;;;;;;;9.64;79.63;95588.50;5072480;28;20452;-74
2022/10/30 05:03:00;;;;;;;13.50;10.57;;;;;;;9.59;79.51;95593.22;5072730;28;20441;-74
2022/10/30 05:05:27;;;;;;;18.33;13.80;;;;;;;9.54;79.55;95603.16;5072265;28;20483;-74
2022/10/30 05:07:54;;;;;;;13.63;11.20;;;;;;;9.51;79.58;95595.50;5072065;28;20449;-74
2022/10/30 05:10:20;;;;;;;21.33;12.50;;;;;;;9.51;80.11;95598.13;5072231;28;20505;-74
2022/10/30 05:12:51;;;;;;;17.50;11.70;;;;;;;9.56;80.22;95593.44;5071804;28;20488;-74
2022/10/30 05:15:17;;;;;;;18.03;12.40;;;;;;;9.80;80.68;95596.09;5072106;28;20447;-74
2022/10/30 05:17:44;;;;;;;15.47;12.10;;;;;;;10.30;79.67;95602.19;5072031;28;20453;-74
2022/10/30 05:20:11;;;;;;;14.77;12.40;;;;;;;10.92;77.28;95596.72;5053077;28;20438;-75
2022/10/30 05:22:38;;;;;;;14.80;11.53;;;;;;;11.64;74.40;95603.44;5071995;28;20453;-74
2022/10/30 05:25:06;;;;;;;12.40;10.40;;;;;;;12.40;71.61;95597.38;5072274;28;20702;-75
2022/10/30 05:27:32;;;;;;;13.37;10.53;;;;;;;13.06;67.17;95593.78;5071764;28;20506;-74
2022/10/30 05:30:01;;;;;;;16.03;11.97;;;;;;;13.38;64.94;95599.88;5071737;28;20451;-75
2022/10/30 05:32:27;;;;;;;16.60;11.10;;;;;;;13.91;64.30;95602.34;5072270;28;20855;-77
2022/10/30 05:34:54;;;;;;;14.67;11.73;;;;;;;14.53;62.21;95604.78;5071898;28;20882;-74
2022/10/30 05:37:21;;;;;;;14.20;11.57;;;;;;;15.09;59.87;95605.94;5072240;28;20452;-75
2022/10/30 05:39:48;;;;;;;14.30;11.13;;;;;;;15.52;58.14;95601.97;5071783;28;20453;-75
2022/10/30 05:42:14;;;;;;;14.07;10.77;;;;;;;16.00;56.41;95593.91;5071848;28;20459;-75
2022/10/30 05:44:41;;;;;;;11.43;10.23;;;;;;;16.36;54.81;95602.78;5071777;28;20466;-75
2022/10/30 05:47:11;;;;;;;11.77;10.57;;;;;;;16.69;54.42;95601.34;5072019;28;20436;-75
2022/10/30 05:49:38;;;;;;;13.63;11.17;;;;;;;16.94;52.82;95603.25;5071516;28;20450;-75
2022/10/30 05:52:05;;;;;;;12.27;10.97;;;;;;;17.17;52.46;95600.16;5071660;28;20480;-75
2022/10/30 05:54:31;;;;;;;18.67;11.53;;;;;;;17.26;51.46;95597.41;5071628;28;20487;-77
2022/10/30 05:56:58;;;;;;;13.40;10.83;;;;;;;17.39;51.91;95602.34;5072158;28;20808;-77
2022/10/30 05:59:25;;;;;;;17.37;12.80;;;;;;;17.51;51.54;95592.28;5072193;28;20506;-74
2022/10/30 06:01:51;;;;;;;13.87;11.60;;;;;;;17.74;50.91;95598.78;5071971;28;20444;-75
2022/10/30 06:04:20;;;;;;;15.40;12.67;;;;;;;17.86;50.28;95599.34;5072247;28;20455;-77
2022/10/30 06:06:46;;;;;;;13.30;10.70;;;;;;;17.84;50.38;95586.22;5071328;28;20452;-77
2022/10/30 06:09:13;;;;;;;17.13;10.57;;;;;;;17.89;50.55;95583.09;5072070;28;20509;-77
2022/10/30 06:11:40;;;;;;;10.83;9.70;;;;;;;17.76;50.70;95580.03;5072023;28;20798;-76
2022/10/30 06:14:07;;;;;;;14.40;10.53;;;;;;;17.74;51.05;95582.84;5071573;28;20565;-75
2022/10/30 06:16:33;;;;;;;10.40;8.90;;;;;;;17.81;51.10;95583.06;5071746;28;20590;-77
2022/10/30 06:19:00;;;;;;;10.63;8.63;;;;;;;17.88;50.52;95584.09;5071529;28;20440;-76
2022/10/30 06:21:28;;;;;;;12.60;9.47;;;;;;;17.77;50.90;95589.66;5071850;28;20803;-75
2022/10/30 06:23:55;;;;;;;13.60;8.93;;;;;;;17.56;50.78;95582.03;5036191;28;20449;-77
2022/10/30 06:26:22;;;;;;;12.40;9.77;;;;;;;17.14;52.17;95588.03;5071877;28;20488;-77
2022/10/30 06:28:48;;;;;;;9.73;8.63;;;;;;;16.83;53.63;95586.75;5071420;28;20442;-76
2022/10/30 06:31:15;;;;;;;14.43;10.20;;;;;;;16.50;55.64;95586.41;5071626;28;20445;-77
2022/10/30 06:33:42;;;;;;;15.13;11.33;;;;;;;16.35;55.74;95587.88;5071592;28;20490;-77
2022/10/30 06:36:09;;;;;;;12.33;10.67;;;;;;;16.09;57.13;95591.22;5071655;28;20439;-77
2022/10/30 06:38:37;;;;;;;15.30;11.43;;;;;;;16.02;58.09;95595.44;5072473;28;20442;-77
2022/10/30 06:41:04;;;;;;;13.43;11.37;;;;;;;15.85;58.51;95590.88;5075315;28;20441;-77
2022/10/30 06:43:31;;;;;;;15.03;11.30;;;;;;;15.80;59.29;95587.84;5075493;28;20442;-77
2022/10/30 06:45:58;;;;;;;12.07;9.70;;;;;;;15.86;59.28;95583.78;5075477;28;20456;-77
2022/10/30 06:48:25;;;;;;;12.20;11.00;;;;;;;15.85;59.13;95590.06;5056357;28;20931;-76
2022/10/30 06:50:54;;;;;;;12.27;10.43;;;;;;;15.91;59.55;95592.97;5075511;28;20477;-77
2022/10/30 06:53:21;;;;;;;14.73;10.27;;;;;;;15.93;59.24;95580.44;5075076;28;20919;-77
2022/10/30 06:55:55;;;;;;;11.50;10.33;;;;;;;15.97;59.53;95588.91;5075356;28;20511;-77
2022/10/30 06:58:22;;;;;;;13.63;9.70;;;;;;;15.92;59.79;95593.81;5074814;28;20925;-77
2022/10/30 07:00:49;;;;;;;11.50;9.77;;;;;;;15.55;60.38;95596.38;5072831;28;20955;-77
2022/10/30 07:03:16;;;;;;;17.53;10.10;;;;;;;15.21;61.47;95599.50;5074679;28;20920;-77
2022/10/30 07:05:43;;;;;;;16.50;11.30;;;;;;;14.75;63.15;95609.00;5074907;28;20505;-77
2022/10/30 07:08:10;;;;;;;14.20;10.00;;;;;;;14.46;64.44;95606.31;5074840;28;20444;-77
2022/10/30 07:10:37;;;;;;;12.40;10.00;;;;;;;14.46;64.82;95605.47;5074605;28;20494;-77
2022/10/30 07:13:05;;;;;;;16.53;10.77;;;;;;;14.51;64.82;95601.44;5074519;28;20502;-77
2022/10/30 07:15:32;;;;;;;16.90;10.50;;;;;;;14.57;64.94;95597.41;5074621;28;20448;-77
2022/10/30 07:18:00;;;;;;;13.83;11.53;;;;;;;14.05;65.99;95596.69;5074553;28;20449;-77
2022/10/30 07:20:28;;;;;;;20.30;12.23;;;;;;;14.02;66.78;95601.41;5074664;28;20445;-77
2022/10/30 07:22:55;;;;;;;21.87;12.10;;;;;;;13.73;68.28;95596.84;5074550;28;20449;-77
2022/10/30 07:25:22;;;;;;;15.60;12.73;;;;;;;13.77;68.71;95594.78;5074145;28;20475;-77
2022/10/30 07:27:51;;;;;;;13.13;11.37;;;;;;;13.22;70.50;95583.66;5074088;28;20947;-76
2022/10/30 07:30:20;;;;;;;14.10;11.53;;;;;;;13.30;70.53;95589.97;5074009;28;20566;-76
2022/10/30 07:32:56;;;;;;;21.40;13.07;;;;;;;13.39;70.82;95596.25;5074563;28;20444;-76
2022/10/30 07:35:23;;;;;;;15.93;12.23;;;;;;;13.50;71.14;95590.91;5074316;28;20440;-77
2022/10/30 07:37:50;;;;;;;18.73;11.30;;;;;;;13.48;71.18;95586.72;5074480;28;20863;-77
2022/10/30 07:40:17;;;;;;;18.53;11.80;;;;;;;13.49;70.85;95581.31;5074265;28;20464;-77
2022/10/30 07:42:44;;;;;;;13.60;10.93;;;;;;;13.60;71.11;95583.06;5073821;28;20448;-77
2022/10/30 07:45:11;;;;;;;16.70;11.50;;;;;;;13.50;71.51;95593.53;5074410;28;20475;-77
2022/10/30 07:47:40;;;;;;;22.20;12.87;;;;;;;13.54;71.49;95589.66;5073771;28;20443;-77
2022/10/30 07:50:08;;;;;;;22.50;13.17;;;;;;;13.74;70.92;95595.03;5038269;28;20451;-77
2022/10/30 07:52:35;;;;;;;25.10;14.33;;;;;;;13.98;70.41;95586.81;5054609;28;20489;-77
2022/10/30 07:55:02;;;;;;;50.17;14.63;;;;;;;14.16;70.05;95575.47;5074310;28;20483;-77
2022/10/30 07:57:32;;;;;;;43.80;15.00;;;;;;;14.37;68.95;95577.19;5073738;28;20448;-77
2022/10/30 07:59:58;;;;;;;14.33;12.17;;;;;;;14.20;69.69;95571.63;5073577;28;20527;-76
2022/10/30 08:02:25;;;;;;;17.70;11.77;;;;;;;14.33;69.93;95563.44;5073314;28;20506;-76
2022/10/30 08:04:53;;;;;;;15.90;12.83;;;;;;;14.49;69.97;95558.50;5073732;28;20514;-76
2022/10/30 08:07:20;;;;;;;21.87;13.90;;;;;;;14.67;69.80;95555.16;5073903;28;20447;-76
2022/10/30 08:09:47;;;;;;;19.60;12.40;;;;;;;14.85;69.51;95556.13;5073642;28;20441;-76
2022/10/30 08:12:13;;;;;;;16.40;12.70;;;;;;;14.95;69.84;95553.47;5073487;28;20536;-77
2022/10/30 08:14:40;;;;;;;18.97;12.60;;;;;;;15.03;69.42;95551.78;5072970;28;20986;-76
2022/10/30 08:17:09;;;;;;;55.47;25.40;;;;;;;15.11;69.01;95546.66;5073351;28;20448;-77
2022/10/30 08:19:36;;;;;;;31.23;23.60;;;;;;;15.22;68.98;95545.66;5073187;28;20870;-76
2022/10/30 08:22:04;;;;;;;31.73;17.80;;;;;;;15.33;69.08;95540.22;5073076;28;20948;-76
2022/10/30 08:24:31;;;;;;;33.13;19.60;;;;;;;15.56;68.37;95539.84;5072757;28;20445;-76
2022/10/30 08:26:58;;;;;;;28.53;18.80;;;;;;;15.73;67.79;95529.38;5073008;28;20445;-76
2022/10/30 08:29:24;;;;;;;59.23;27.23;;;;;;;15.90;67.55;95524.28;5073132;28;20436;-76
2022/10/30 08:31:51;;;;;;;49.27;26.90;;;;;;;16.01;67.65;95532.88;5073149;28;20915;-76
2022/10/30 08:34:18;;;;;;;40.27;24.33;;;;;;;16.15;67.17;95531.53;5072744;28;20950;-77
2022/10/30 08:36:45;;;;;;;28.93;20.60;;;;;;;16.30;66.67;95534.50;5072797;28;20927;-77
2022/10/30 08:39:13;;;;;;;26.87;20.20;;;;;;;16.49;65.71;95534.41;5072641;28;20793;-76
2022/10/30 08:41:40;;;;;;;30.97;20.87;;;;;;;16.59;65.38;95536.97;5072746;28;20451;-77
2022/10/30 08:44:06;;;;;;;34.20;18.23;;;;;;;16.75;64.80;95525.69;5072333;28;20446;-77
2022/10/30 08:46:33;;;;;;;20.20;15.53;;;;;;;16.94;64.25;95528.19;5072855;28;20455;-77
2022/10/30 08:49:00;;;;;;;23.83;15.10;;;;;;;17.02;63.83;95533.56;5072857;28;20931;-77
2022/10/30 08:51:27;;;;;;;25.97;15.33;;;;;;;17.22;63.37;95536.88;5053303;28;20480;-76
2022/10/30 08:53:54;;;;;;;19.73;13.83;;;;;;;17.39;63.52;95527.22;5072948;28;20480;-77
2022/10/30 08:56:22;;;;;;;17.83;13.20;;;;;;;17.59;62.50;95529.47;5072390;28;21007;-76
2022/10/30 08:58:50;;;;;;;14.60;11.40;;;;;;;17.65;62.09;95522.72;5072586;28;20444;-77
2022/10/30 09:01:17;;;;;;;15.77;11.93;;;;;;;17.73;61.97;95522.78;5072114;28;20437;-77
2022/10/30 09:03:44;;;;;;;17.83;14.60;;;;;;;17.58;61.61;95508.41;5072306;28;20445;-77
2022/10/30 09:06:11;;;;;;;21.60;13.87;;;;;;;17.55;61.63;95517.50;5072365;28;20445;-76
2022/10/30 09:08:38;;;;;;;18.43;11.17;;;;;;;17.73;61.38;95512.19;5072058;28;20954;-76
2022/10/30 09:11:05;;;;;;;14.10;11.03;;;;;;;17.85;61.06;95502.09;5072631;28;20839;-76
2022/10/30 09:13:33;;;;;;;24.80;13.93;;;;;;;17.91;61.09;95504.94;5072252;28;20534;-77
2022/10/30 09:16:01;;;;;;;15.90;11.37;;;;;;;17.82;61.12;95507.72;5072200;28;20453;-76
2022/10/30 09:18:28;;;;;;;23.60;12.90;;;;;;;17.94;61.42;95512.63;5071934;28;20878;-76
2022/10/30 09:20:55;;;;;;;12.80;9.90;;;;;;;18.03;60.19;95505.50;5072272;28;20460;-76
2022/10/30 09:23:21;;;;;;;13.10;11.67;;;;;;;18.07;60.10;95506.84;5072226;28;20441;-76
2022/10/30 09:25:48;;;;;;;14.60;12.10;;;;;;;18.01;60.79;95506.66;5072134;28;20545;-76
2022/10/30 09:28:15;;;;;;;19.90;11.60;;;;;;;18.12;59.78;95498.38;5072212;28;20448;-77
2022/10/30 09:30:43;;;;;;;20.13;11.17;;;;;;;18.15;60.37;95506.03;5072145;28;20838;-77
2022/10/30 09:33:10;;;;;;;16.77;10.77;;;;;;;18.24;59.86;95497.09;5071753;28;20443;-76
2022/10/30 09:35:37;;;;;;;13.17;10.23;;;;;;;18.37;59.75;95491.31;5072089;28;20800;-77
2022/10/30 09:38:03;;;;;;;15.67;12.07;;;;;;;18.50;58.56;95483.69;5072048;28;20433;-76
2022/10/30 09:40:41;;;;;;;19.30;11.37;;;;;;;18.60;58.65;95496.84;5071935;28;20436;-76
2022/10/30 09:43:18;;;;;;;18.47;11.00;;;;;;;18.64;58.33;95483.06;5071975;28;20859;-77
2022/10/30 09:46:09;;;;;;;17.53;11.30;;;;;;;18.57;58.18;95487.38;5071948;28;20444;-76
2022/10/30 09:49:05;;;;;;;18.17;12.00;;;;;;;18.66;57.57;95480.25;5029408;28;20792;-76
2022/10/30 09:52:06;;;;;;;21.83;12.80;;;;;;;18.70;58.72;95469.13;4970605;28;20507;-76
2022/10/30 09:54:47;;;;;;;13.93;12.43;;;;;;;18.71;57.79;95468.13;4970815;28;20438;-76
2022/10/30 09:57:21;;;;;;;17.30;12.63;;;;;;;18.80;57.75;95463.66;4970838;28;20634;-77
2022/10/30 09:59:59;;;;;;;18.67;13.87;;;;;;;18.89;56.75;95454.66;4971053;28;20449;-77
2022/10/30 10:02:34;;;;;;;20.90;12.03;;;;;;;18.96;57.25;95455.66;4970397;28;20495;-76
2022/10/30 10:05:12;;;;;;;18.03;11.53;;;;;;;19.04;57.54;95442.34;4970596;28;20503;-76
2022/10/30 10:07:43;;;;;;;15.90;12.50;;;;;;;19.10;57.16;95440.84;4970519;28;20902;-76
2022/10/30 10:10:25;;;;;;;16.40;10.77;;;;;;;19.16;57.08;95435.69;4970708;28;20887;-76
2022/10/30 10:12:54;;;;;;;15.97;11.80;;;;;;;19.24;56.86;95431.34;4970746;28;20944;-76
2022/10/30 10:15:37;;;;;;;18.13;12.07;;;;;;;19.32;56.97;95434.81;4974233;28;21058;-76
2022/10/30 10:18:14;;;;;;;15.43;11.10;;;;;;;19.36;56.47;95428.13;4974549;28;20445;-76
2022/10/30 10:20:43;;;;;;;18.40;10.53;;;;;;;19.46;56.93;95425.28;4974142;28;20452;-76
2022/10/30 10:23:18;;;;;;;15.00;11.43;;;;;;;19.54;56.39;95421.78;4974200;28;20453;-76
2022/10/30 10:25:52;;;;;;;13.63;10.33;;;;;;;19.56;54.94;95404.66;4992292;28;20812;-76
2022/10/30 10:28:36;;;;;;;13.47;10.67;;;;;;;19.58;55.08;95397.31;5030494;28;20821;-76
2022/10/30 10:31:15;;;;;;;14.20;11.30;;;;;;;19.60;55.16;95395.31;5075356;28;20509;-76
2022/10/30 10:34:00;;;;;;;17.00;11.70;;;;;;;19.65;55.35;95387.63;5075232;28;20448;-76
2022/10/30 10:36:34;;;;;;;17.83;10.43;;;;;;;19.75;54.22;95385.59;5075216;28;20444;-76
2022/10/30 10:39:15;;;;;;;16.17;9.23;;;;;;;19.84;54.74;95381.06;5039803;28;20807;-76
2022/10/30 10:41:58;;;;;;;13.57;10.10;;;;;;;19.93;53.94;95379.16;5075192;28;20490;-78
2022/10/30 10:44:43;;;;;;;14.77;9.60;;;;;;;20.01;53.55;95374.63;5074688;28;20884;-76
2022/10/30 10:47:26;;;;;;;15.50;10.97;;;;;;;20.08;52.73;95377.41;5074812;28;20449;-77
2022/10/30 10:50:12;;;;;;;14.40;10.73;;;;;;;20.14;52.26;95371.38;5056068;28;20441;-76
2022/10/30 10:52:43;;;;;;;11.67;8.37;;;;;;;20.20;51.48;95376.00;5074421;28;21011;-76
2022/10/30 10:55:16;;;;;;;10.90;7.60;;;;;;;20.26;51.92;95369.97;5074758;28;20554;-76
2022/10/30 10:57:44;;;;;;;11.80;8.23;;;;;;;20.36;50.96;95364.41;5074687;28;20467;-76
2022/10/30 11:00:16;;;;;;;10.03;7.00;;;;;;;20.44;49.45;95366.19;5074756;28;20453;-76
2022/10/30 11:02:49;;;;;;;11.60;7.73;;;;;;;20.46;49.33;95367.66;5074802;28;20440;-76
2022/10/30 11:05:26;;;;;;;14.40;9.70;;;;;;;20.51;49.74;95359.97;5074681;28;21001;-77
2022/10/30 11:07:58;;;;;;;12.17;8.40;;;;;;;20.52;50.48;95356.28;5075121;28;20440;-76
2022/10/30 11:10:25;;;;;;;9.77;8.70;;;;;;;20.53;48.80;95354.44;5074507;28;20970;-76
2022/10/30 11:12:52;;;;;;;9.00;6.63;;;;;;;20.54;49.36;95345.47;5074280;28;20480;-76
2022/10/30 11:15:39;;;;;;;9.90;7.43;;;;;;;20.62;49.18;95345.38;5074308;28;20476;-76
2022/10/30 11:18:08;;;;;;;10.00;7.47;;;;;;;20.66;49.80;95339.50;5032047;28;20544;-76
2022/10/30 11:20:44;;;;;;;13.50;9.37;;;;;;;20.75;49.38;95339.41;5032082;28;20443;-76
2022/10/30 11:23:38;;;;;;;17.70;8.60;;;;;;;20.79;48.24;95330.88;5031788;28;20484;-76
2022/10/30 11:26:24;;;;;;;8.37;7.07;;;;;;;20.81;49.11;95330.69;5015070;28;20482;-76
2022/10/30 11:28:54;;;;;;;8.73;6.93;;;;;;;20.86;48.86;95331.00;4982594;28;20442;-76
2022/10/30 11:31:23;;;;;;;12.80;6.80;;;;;;;20.93;49.45;95324.72;5031819;28;20536;-76
2022/10/30 11:33:51;;;;;;;14.73;8.17;;;;;;;20.98;49.24;95317.00;5031669;28;20450;-76
2022/10/30 11:36:22;;;;;;;8.07;7.13;;;;;;;20.97;49.12;95310.00;5031442;28;20498;-76